Time;durP1;ratioP1;P1;durP2;ratioP2;P2;SDS_P1;SDS_P2;PMS_P1;PMS_P2;Temp;Humidity;BMP_temperature;BMP_pressure;BME280_temperature;BME280_humidity;BME280_pressure;Samples;Min_cycle;Max_cycle;Signal;HPM_P1;HPM_P2
2021/06/03 00:00:30;;;;;;;7.78;6.68;;;;;;;;;;6237945;28;20045;-80
2021/06/03 00:03:35;;;;;;;;;;;;;;;;;;6236200;28;20051;-80
2021/06/03 00:06:36;;;;;;;6.88;6.18;;;;;;;;;;6237214;28;19931;-81
2021/06/03 00:09:38;;;;;;;7.93;5.65;;;;;;;;;;6226625;28;20130;-80
2021/06/03 00:12:40;;;;;;;8.77;6.88;;;;;;;;;;6214926;28;20045;-80
2021/06/03 00:15:42;;;;;;;7.00;6.18;;;;;;;;;;6216155;28;20038;-80
2021/06/03 00:18:44;;;;;;;8.40;7.22;;;;;;;;;;6216100;28;20499;-81
2021/06/03 00:21:46;;;;;;;8.73;6.53;;;;;;;;;;6216393;28;20042;-80
2021/06/03 00:24:48;;;;;;;7.68;6.45;;;;;;;;;;6216186;28;20042;-80
2021/06/03 00:27:50;;;;;;;8.07;7.28;;;;;;;;;;6215131;28;20042;-79
2021/06/03 00:30:52;;;;;;;6.20;5.60;;;;;;;;;;6215671;28;20053;-81
2021/06/03 00:33:54;;;;;;;9.23;6.20;;;;;;;;;;6216406;28;20046;-81
2021/06/03 00:36:56;;;;;;;7.20;6.50;;;;;;;;;;6214430;28;20041;-79
2021/06/03 00:39:57;;;;;;;7.53;5.95;;;;;;;;;;6215887;28;20045;-80
2021/06/03 00:42:59;;;;;;;10.35;6.88;;;;;;;;;;6214821;28;20049;-81
2021/06/03 00:46:02;;;;;;;9.25;6.72;;;;;;;;;;6230749;28;20833;-80
2021/06/03 00:49:04;;;;;;;7.15;6.45;;;;;;;;;;6238590;28;20572;-81
2021/06/03 00:52:06;;;;;;;7.72;6.10;;;;;;;;;;6238860;28;20045;-81
2021/06/03 00:55:09;;;;;;;6.57;5.95;;;;;;;;;;6236912;28;20128;-80
2021/06/03 00:58:11;;;;;;;6.80;6.10;;;;;;;;;;6236368;28;20041;-80
2021/06/03 01:01:13;;;;;;;9.32;6.70;;;;;;;;;;6254827;28;20048;-81
2021/06/03 01:04:19;;;;;;;7.28;6.22;;;;;;;;;;6240565;28;20514;-80
2021/06/03 01:07:21;;;;;;;8.82;7.43;;;;;;;;;;6229079;28;20073;-81
2021/06/03 01:10:28;;;;;;;9.02;7.47;;;;;;;;;;6231735;28;20141;-80
2021/06/03 01:13:37;;;;;;;10.20;7.75;;;;;;;;;;6239279;28;20057;-80
2021/06/03 01:16:41;;;;;;;7.22;6.53;;;;;;;;;;6240006;28;20045;-79
2021/06/03 01:19:45;;;;;;;8.77;6.25;;;;;;;;;;6258418;28;20052;-81
2021/06/03 01:23:02;;;;;;;;;;;;;;;;;;6263745;28;20043;-81
2021/06/03 01:26:04;;;;;;;8.45;6.07;;;;;;;;;;6218349;28;19928;-79
2021/06/03 01:29:06;;;;;;;7.70;6.28;;;;;;;;;;6229920;28;20038;-80
2021/06/03 01:32:18;;;;;;;6.72;5.85;;;;;;;;;;6233582;28;20384;-80
2021/06/03 01:35:27;;;;;;;7.60;6.80;;;;;;;;;;6229420;28;20042;-81
2021/06/03 01:38:31;;;;;;;7.43;6.65;;;;;;;;;;6231586;28;20053;-78
2021/06/03 01:41:34;;;;;;;7.15;6.07;;;;;;;;;;6237979;28;20038;-80
2021/06/03 01:44:37;;;;;;;10.43;7.05;;;;;;;;;;6237040;28;20045;-80
2021/06/03 01:47:40;;;;;;;8.50;5.95;;;;;;;;;;6242071;28;20196;-80
2021/06/03 01:50:42;;;;;;;6.72;5.68;;;;;;;;;;6260097;28;20048;-79
2021/06/03 01:53:44;;;;;;;9.97;6.17;;;;;;;;;;6259776;28;20060;-79
2021/06/03 01:56:47;;;;;;;7.13;5.93;;;;;;;;;;6244063;28;20044;-80
2021/06/03 01:59:53;;;;;;;10.45;7.30;;;;;;;;;;6240083;28;20073;-80
2021/06/03 02:02:55;;;;;;;7.22;6.47;;;;;;;;;;6240666;28;20140;-80
2021/06/03 02:06:01;;;;;;;8.73;6.70;;;;;;;;;;6240524;28;20045;-80
2021/06/03 02:09:05;;;;;;;7.80;6.70;;;;;;;;;;6231686;28;20129;-81
2021/06/03 02:12:11;;;;;;;8.90;6.95;;;;;;;;;;6240585;28;20452;-80
2021/06/03 02:15:15;;;;;;;10.15;7.72;;;;;;;;;;6257120;28;20132;-79
2021/06/03 02:18:19;;;;;;;8.57;7.63;;;;;;;;;;6248408;28;20091;-80
2021/06/03 02:21:22;;;;;;;9.13;7.80;;;;;;;;;;6264750;28;20037;-80
2021/06/03 02:24:27;;;;;;;12.60;10.57;;;;;;;;;;6240814;28;20188;-79
2021/06/03 02:27:29;;;;;;;12.75;10.82;;;;;;;;;;6244063;28;20041;-80
2021/06/03 02:30:32;;;;;;;12.93;10.70;;;;;;;;;;6244139;28;20046;-80
2021/06/03 02:33:34;;;;;;;;;;;;;;;;;;6256035;28;20105;-79
2021/06/03 02:36:38;;;;;;;11.35;8.25;;;;;;;;;;6266543;28;19927;-80
2021/06/03 02:39:41;;;;;;;10.07;8.27;;;;;;;;;;6246390;28;20060;-80
2021/06/03 02:42:45;;;;;;;13.15;9.82;;;;;;;;;;6233744;28;20081;-78
2021/06/03 02:45:50;;;;;;;12.85;9.93;;;;;;;;;;6223840;28;20426;-80
2021/06/03 02:48:53;;;;;;;10.95;7.68;;;;;;;;;;6274351;28;20156;-79
2021/06/03 02:51:55;;;;;;;8.73;7.20;;;;;;;;;;6240531;28;20140;-78
2021/06/03 02:54:57;;;;;;;9.35;7.90;;;;;;;;;;6253635;28;20052;-80
2021/06/03 02:57:59;;;;;;;8.90;7.32;;;;;;;;;;6265796;28;20060;-80
2021/06/03 03:01:06;;;;;;;8.90;7.07;;;;;;;;;;6267125;28;20037;-79
2021/06/03 03:04:08;;;;;;;9.98;8.18;;;;;;;;;;6246376;28;20150;-78
2021/06/03 03:07:11;;;;;;;8.45;7.07;;;;;;;;;;6241898;28;20038;-79
2021/06/03 03:10:21;;;;;;;8.00;7.20;;;;;;;;;;6248229;28;20129;-80
2021/06/03 03:13:23;;;;;;;9.50;8.00;;;;;;;;;;6191902;28;20053;-80
2021/06/03 03:16:25;;;;;;;9.10;7.70;;;;;;;;;;6194326;28;20120;-80
2021/06/03 03:19:31;;;;;;;7.95;7.10;;;;;;;;;;6233190;28;20033;-80
2021/06/03 03:22:35;;;;;;;8.93;8.02;;;;;;;;;;6242112;28;20033;-79
2021/06/03 03:25:38;;;;;;;12.03;8.73;;;;;;;;;;6222629;28;20503;-78
2021/06/03 03:28:40;;;;;;;10.68;8.73;;;;;;;;;;6199167;28;20464;-78
2021/06/03 03:31:42;;;;;;;10.20;9.10;;;;;;;;;;6217978;28;20042;-79
2021/06/03 03:34:44;;;;;;;10.48;9.32;;;;;;;;;;6215761;28;20046;-79
2021/06/03 03:37:47;;;;;;;8.55;7.07;;;;;;;;;;6217355;28;20049;-81
2021/06/03 03:40:49;;;;;;;8.75;6.95;;;;;;;;;;6237087;28;20044;-81
2021/06/03 03:43:53;;;;;;;9.98;7.50;;;;;;;;;;6240824;28;20425;-81
2021/06/03 03:46:55;;;;;;;7.85;7.10;;;;;;;;;;6241035;28;20041;-81
2021/06/03 03:49:57;;;;;;;8.30;7.47;;;;;;;;;;6218046;28;20422;-81
2021/06/03 03:52:59;;;;;;;9.30;7.18;;;;;;;;;;6232624;28;20085;-79
2021/06/03 03:56:01;;;;;;;9.95;7.78;;;;;;;;;;6220274;28;20053;-81
2021/06/03 03:59:06;;;;;;;11.13;7.68;;;;;;;;;;6240727;28;20419;-80
2021/06/03 04:02:08;;;;;;;9.73;8.07;;;;;;;;;;6237261;28;20045;-81
2021/06/03 04:05:11;;;;;;;10.07;7.25;;;;;;;;;;6217259;28;20045;-80
2021/06/03 04:08:12;;;;;;;8.10;7.30;;;;;;;;;;6217586;28;20049;-79
2021/06/03 04:11:19;;;;;;;8.05;7.05;;;;;;;;;;6237859;28;20407;-79
2021/06/03 04:14:24;;;;;;;7.95;7.15;;;;;;;;;;6240979;28;20041;-79
2021/06/03 04:17:27;;;;;;;10.65;7.15;;;;;;;;;;6220961;28;20120;-82
2021/06/03 04:20:30;;;;;;;8.75;7.30;;;;;;;;;;6220756;28;20048;-80
2021/06/03 04:23:32;;;;;;;9.57;7.20;;;;;;;;;;6220971;28;20042;-80
2021/06/03 04:26:36;;;;;;;7.75;6.95;;;;;;;;;;6216411;28;20060;-80
2021/06/03 04:29:37;;;;;;;;;;;;;;;;;;6231455;28;20046;-81
2021/06/03 04:32:40;;;;;;;10.60;6.93;;;;;;;;;;6239450;28;20376;-80
2021/06/03 04:35:42;;;;;;;9.23;7.10;;;;;;;;;;6237889;28;20041;-81
2021/06/03 04:38:43;;;;;;;8.82;6.82;;;;;;;;;;6238868;28;20128;-79
2021/06/03 04:41:45;;;;;;;8.38;7.15;;;;;;;;;;6241964;28;20049;-81
2021/06/03 04:44:47;;;;;;;10.70;7.13;;;;;;;;;;6237654;28;20132;-79
2021/06/03 04:47:48;;;;;;;8.73;7.15;;;;;;;;;;6255596;28;20057;-80
2021/06/03 04:50:51;;;;;;;7.57;6.78;;;;;;;;;;6213751;28;20045;-80
2021/06/03 04:53:53;;;;;;;10.00;6.75;;;;;;;;;;6234264;28;20048;-80
2021/06/03 04:56:54;;;;;;;7.78;6.82;;;;;;;;;;6238083;28;20414;-80
2021/06/03 04:59:56;;;;;;;8.55;7.03;;;;;;;;;;6238056;28;20128;-80
2021/06/03 05:02:59;;;;;;;8.00;5.90;;;;;;;;;;6222473;28;20083;-80
2021/06/03 05:06:01;;;;;;;6.47;5.82;;;;;;;;;;6262066;28;20065;-80
2021/06/03 05:09:03;;;;;;;7.82;6.68;;;;;;;;;;6263066;28;20044;-80
2021/06/03 05:12:06;;;;;;;9.50;6.53;;;;;;;;;;6239246;28;20518;-81
2021/06/03 05:15:09;;;;;;;8.63;6.53;;;;;;;;;;6238168;28;20128;-80
2021/06/03 05:18:10;;;;;;;7.30;6.60;;;;;;;;;;6244922;28;20045;-81
2021/06/03 05:21:13;;;;;;;8.77;6.28;;;;;;;;;;6239057;28;20052;-80
2021/06/03 05:24:15;;;;;;;8.88;7.30;;;;;;;;;;6249198;28;20103;-80
2021/06/03 05:27:17;;;;;;;7.78;6.90;;;;;;;;;;6240146;28;20063;-80
2021/06/03 05:30:20;;;;;;;9.57;7.40;;;;;;;;;;6255336;28;20067;-80
2021/06/03 05:33:22;;;;;;;;;;;;;;;;;;6236437;28;20164;-81
2021/06/03 05:36:23;;;;;;;7.57;6.07;;;;;;;;;;6246976;28;19924;-81
2021/06/03 05:39:25;;;;;;;9.52;6.57;;;;;;;;;;6247969;28;20052;-80
2021/06/03 05:42:26;;;;;;;6.20;5.60;;;;;;;;;;6264451;28;20052;-81
2021/06/03 05:45:29;;;;;;;7.88;6.40;;;;;;;;;;6245980;28;20045;-81
2021/06/03 05:48:30;;;;;;;8.55;6.82;;;;;;;;;;6238906;28;20050;-81
2021/06/03 05:51:33;;;;;;;7.07;6.25;;;;;;;;;;6264006;28;20048;-81
2021/06/03 05:54:36;;;;;;;7.20;6.43;;;;;;;;;;6251827;28;20041;-80
2021/06/03 05:57:38;;;;;;;7.80;6.00;;;;;;;;;;6240165;28;20051;-80
2021/06/03 06:00:40;;;;;;;9.88;6.35;;;;;;;;;;6239402;28;20690;-81
2021/06/03 06:03:46;;;;;;;6.78;5.85;;;;;;;;;;6239019;28;20134;-81
2021/06/03 06:06:48;;;;;;;7.13;4.95;;;;;;;;;;6246858;28;20052;-82
2021/06/03 06:09:49;;;;;;;10.60;6.75;;;;;;;;;;6225659;28;20200;-81
2021/06/03 06:12:52;;;;;;;8.18;6.82;;;;;;;;;;6229651;28;20105;-81
2021/06/03 06:15:54;;;;;;;7.55;6.70;;;;;;;;;;6249990;28;20069;-80
2021/06/03 06:18:57;;;;;;;7.28;6.57;;;;;;;;;;6239181;28;20577;-81
2021/06/03 06:21:59;;;;;;;8.27;6.20;;;;;;;;;;6238509;28;20054;-80
2021/06/03 06:25:03;;;;;;;7.88;6.35;;;;;;;;;;6230451;28;20472;-79
2021/06/03 06:28:04;;;;;;;7.45;6.00;;;;;;;;;;6249440;28;20072;-81
2021/06/03 06:31:07;;;;;;;6.60;6.00;;;;;;;;;;6231790;28;20517;-80
2021/06/03 06:34:09;;;;;;;7.57;5.88;;;;;;;;;;6210770;28;20517;-81
2021/06/03 06:37:10;;;;;;;6.22;5.63;;;;;;;;;;6210086;28;20034;-82
2021/06/03 06:40:12;;;;;;;6.05;5.38;;;;;;;;;;6208475;28;20034;-82
2021/06/03 06:43:14;;;;;;;5.70;5.20;;;;;;;;;;6213254;28;20618;-81
2021/06/03 06:46:15;;;;;;;6.47;4.72;;;;;;;;;;6214690;28;20121;-81
2021/06/03 06:49:17;;;;;;;5.72;5.13;;;;;;;;;;6214598;28;20045;-81
2021/06/03 06:52:19;;;;;;;6.63;5.07;;;;;;;;;;6235286;28;20076;-81
2021/06/03 06:55:23;;;;;;;6.28;4.95;;;;;;;;;;6240162;28;20207;-81
2021/06/03 06:58:24;;;;;;;6.10;5.32;;;;;;;;;;6240401;28;20124;-82
2021/06/03 07:01:26;;;;;;;6.07;5.20;;;;;;;;;;6234233;28;20507;-81
2021/06/03 07:04:28;;;;;;;5.82;5.20;;;;;;;;;;6212721;28;20046;-81
2021/06/03 07:07:29;;;;;;;5.50;5.00;;;;;;;;;;6212015;28;20041;-82
2021/06/03 07:10:31;;;;;;;7.20;5.57;;;;;;;;;;6211995;28;20049;-82
2021/06/03 07:13:32;;;;;;;6.13;5.50;;;;;;;;;;6218010;28;20053;-82
2021/06/03 07:16:35;;;;;;;5.88;4.85;;;;;;;;;;6204169;28;20100;-82
2021/06/03 07:19:37;;;;;;;7.32;4.95;;;;;;;;;;6201080;28;20547;-80
2021/06/03 07:22:40;;;;;;;5.63;5.03;;;;;;;;;;6205164;28;20050;-80
2021/06/03 07:25:42;;;;;;;5.45;4.90;;;;;;;;;;6208319;28;20510;-80
2021/06/03 07:28:45;;;;;;;4.82;4.32;;;;;;;;;;6225370;28;20041;-81
2021/06/03 07:31:47;;;;;;;5.03;4.50;;;;;;;;;;6231899;28;20045;-80
2021/06/03 07:34:49;;;;;;;5.18;4.70;;;;;;;;;;6216107;28;20046;-78
2021/06/03 07:37:51;;;;;;;4.85;4.43;;;;;;;;;;6223080;28;20047;-79
2021/06/03 07:40:53;;;;;;;4.78;4.38;;;;;;;;;;6210802;28;20419;-79
2021/06/03 07:43:55;;;;;;;4.18;3.88;;;;;;;;;;6209066;28;20049;-79
2021/06/03 07:46:56;;;;;;;4.22;3.83;;;;;;;;;;6215497;28;20545;-81
2021/06/03 07:49:58;;;;;;;4.38;3.85;;;;;;;;;;6209263;28;20053;-80
2021/06/03 07:53:02;;;;;;;4.93;4.00;;;;;;;;;;6212257;28;20056;-80
2021/06/03 07:56:05;;;;;;;3.80;3.50;;;;;;;;;;6231753;28;20052;-80
2021/06/03 07:59:06;;;;;;;4.70;3.47;;;;;;;;;;6239322;28;20175;-78
2021/06/03 08:02:09;;;;;;;5.45;3.47;;;;;;;;;;6236160;28;20485;-78
2021/06/03 08:05:12;;;;;;;3.88;3.25;;;;;;;;;;6222785;28;20526;-77
2021/06/03 08:08:14;;;;;;;3.13;2.88;;;;;;;;;;6208181;28;20044;-79
2021/06/03 08:11:16;;;;;;;2.65;2.45;;;;;;;;;;6244558;28;20051;-77
2021/06/03 08:14:17;;;;;;;6.00;3.00;;;;;;;;;;6235270;28;20392;-77
2021/06/03 08:17:19;;;;;;;3.42;2.63;;;;;;;;;;6215857;28;20148;-76
2021/06/03 08:20:24;;;;;;;3.47;2.38;;;;;;;;;;6230624;28;20192;-77
2021/06/03 08:23:28;;;;;;;3.28;2.38;;;;;;;;;;6235539;28;20042;-77
2021/06/03 08:26:30;;;;;;;3.25;2.33;;;;;;;;;;6194720;28;20046;-77
2021/06/03 08:29:32;;;;;;;4.40;2.30;;;;;;;;;;6223827;28;20056;-78
2021/06/03 08:32:33;;;;;;;3.28;2.30;;;;;;;;;;6231096;28;20130;-79
2021/06/03 08:35:36;;;;;;;2.87;2.27;;;;;;;;;;6258625;28;20112;-78
2021/06/03 08:38:38;;;;;;;3.95;2.60;;;;;;;;;;6227182;28;20132;-79
2021/06/03 08:41:42;;;;;;;2.80;2.30;;;;;;;;;;6252290;28;20046;-82
2021/06/03 08:44:44;;;;;;;3.60;2.35;;;;;;;;;;6250548;28;20049;-81
2021/06/03 08:47:46;;;;;;;2.95;2.60;;;;;;;;;;6256170;28;20116;-78
2021/06/03 08:50:52;;;;;;;2.42;2.22;;;;;;;;;;6247646;28;20061;-78
2021/06/03 08:53:53;;;;;;;3.53;2.30;;;;;;;;;;6243299;28;20049;-80
2021/06/03 08:56:55;;;;;;;2.40;2.20;;;;;;;;;;6244367;28;20085;-79
2021/06/03 08:59:57;;;;;;;2.70;2.10;;;;;;;;;;6251088;28;20095;-80
2021/06/03 09:02:58;;;;;;;3.38;2.30;;;;;;;;;;6254551;28;20053;-80
2021/06/03 09:06:02;;;;;;;2.60;2.20;;;;;;;;;;6239729;28;20056;-79
2021/06/03 09:09:05;;;;;;;;;;;;;;;;;;6235961;28;20049;-79
2021/06/03 09:12:10;;;;;;;;;;;;;;;;;;6261897;28;19924;-79
2021/06/03 09:15:16;;;;;;;3.00;2.30;;;;;;;;;;6256603;28;20789;-80
2021/06/03 09:18:29;;;;;;;2.33;2.13;;;;;;;;;;6250663;28;20171;-79
2021/06/03 09:21:37;;;;;;;2.10;1.90;;;;;;;;;;6262890;28;20057;-79
2021/06/03 09:24:39;;;;;;;2.25;1.70;;;;;;;;;;6247273;28;20061;-79
2021/06/03 09:27:41;;;;;;;2.30;1.60;;;;;;;;;;6256787;28;20072;-80
2021/06/03 09:30:52;;;;;;;1.80;1.70;;;;;;;;;;6253496;28;20049;-79
2021/06/03 09:34:14;;;;;;;2.30;2.10;;;;;;;;;;6253281;28;20570;-81
2021/06/03 09:37:16;;;;;;;2.80;1.80;;;;;;;;;;6250669;28;20045;-79
2021/06/03 09:40:23;;;;;;;2.40;1.65;;;;;;;;;;6247527;28;20094;-79
2021/06/03 09:43:25;;;;;;;2.97;1.95;;;;;;;;;;6245385;28;20418;-79
2021/06/03 09:46:26;;;;;;;2.05;1.70;;;;;;;;;;6238974;28;20133;-79
2021/06/03 09:49:32;;;;;;;5.17;4.20;;;;;;;;;;6255924;28;20457;-79
2021/06/03 09:52:35;;;;;;;2.20;2.00;;;;;;;;;;6240599;28;20133;-80
2021/06/03 09:55:37;;;;;;;5.45;4.95;;;;;;;;;;6219600;28;20045;-80
2021/06/03 09:58:39;;;;;;;6.57;3.63;;;;;;;;;;6217126;28;20124;-79
2021/06/03 10:01:53;;;;;;;2.53;1.83;;;;;;;;;;6201500;28;20052;-79
2021/06/03 10:04:56;;;;;;;67.90;59.97;;;;;;;;;;6236914;28;20132;-82
2021/06/03 10:08:07;;;;;;;3.63;2.20;;;;;;;;;;6216314;28;20046;-79
2021/06/03 10:11:09;;;;;;;3.22;2.60;;;;;;;;;;6233633;28;20041;-79
2021/06/03 10:14:14;;;;;;;3.80;2.30;;;;;;;;;;6233989;28;20044;-78
2021/06/03 10:17:23;;;;;;;3.40;2.78;;;;;;;;;;6236739;28;20049;-79
2021/06/03 10:20:54;;;;;;;3.05;2.50;;;;;;;;;;6236250;28;20655;-79
2021/06/03 10:23:56;;;;;;;3.45;2.58;;;;;;;;;;6210594;28;20042;-79
2021/06/03 10:26:58;;;;;;;2.70;2.50;;;;;;;;;;6213116;28;20049;-81
2021/06/03 10:30:03;;;;;;;3.58;2.30;;;;;;;;;;6211571;28;20057;-80
2021/06/03 10:33:12;;;;;;;3.00;2.50;;;;;;;;;;6217391;28;20049;-79
2021/06/03 10:36:15;;;;;;;1.90;1.80;;;;;;;;;;6232938;28;20068;-77
2021/06/03 10:39:16;;;;;;;2.88;2.50;;;;;;;;;;6214259;28;20048;-77
2021/06/03 10:42:20;;;;;;;2.15;1.95;;;;;;;;;;6235624;28;20046;-78
2021/06/03 10:45:23;;;;;;;2.13;1.88;;;;;;;;;;6234576;28;20624;-78
2021/06/03 10:48:24;;;;;;;3.75;1.98;;;;;;;;;;6220040;28;20045;-79
2021/06/03 10:51:26;;;;;;;2.42;1.90;;;;;;;;;;6234625;28;20038;-78
2021/06/03 10:54:46;;;;;;;2.95;2.00;;;;;;;;;;6225095;28;20042;-78
2021/06/03 10:57:50;;;;;;;2.50;1.77;;;;;;;;;;6213185;28;20068;-81
2021/06/03 11:01:04;;;;;;;5.13;2.30;;;;;;;;;;6218027;28;20042;-78
2021/06/03 11:04:10;;;;;;;5.32;4.30;;;;;;;;;;6213701;28;20046;-78
2021/06/03 11:07:14;;;;;;;2.92;2.42;;;;;;;;;;6215561;28;20042;-79
2021/06/03 11:10:30;;;;;;;3.83;2.78;;;;;;;;;;6229870;28;20414;-79
2021/06/03 11:13:31;;;;;;;3.13;2.58;;;;;;;;;;6222631;28;20050;-78
2021/06/03 11:16:36;;;;;;;3.17;2.88;;;;;;;;;;6239758;28;20041;-79
2021/06/03 11:20:07;;;;;;;3.42;2.83;;;;;;;;;;6228150;28;20046;-79
2021/06/03 11:23:36;;;;;;;3.30;2.97;;;;;;;;;;6256598;28;20057;-79
2021/06/03 11:26:40;;;;;;;3.20;2.92;;;;;;;;;;6205241;28;20035;-80
2021/06/03 11:29:47;;;;;;;3.88;3.03;;;;;;;;;;6201985;28;20066;-79
2021/06/03 11:32:52;;;;;;;6.10;3.10;;;;;;;;;;6198036;28;20114;-81
2021/06/03 11:36:27;;;;;;;4.40;3.15;;;;;;;;;;6217518;28;20060;-79
2021/06/03 11:39:32;;;;;;;3.10;2.83;;;;;;;;;;6224810;28;20048;-79
2021/06/03 11:43:03;;;;;;;3.15;2.83;;;;;;;;;;6242233;28;20045;-78
2021/06/03 11:46:04;;;;;;;3.70;3.00;;;;;;;;;;6243043;28;20738;-79
2021/06/03 11:49:40;;;;;;;3.83;3.10;;;;;;;;;;6241747;28;20470;-80
2021/06/03 11:53:00;;;;;;;3.25;2.90;;;;;;;;;;6256133;28;20111;-78
2021/06/03 11:56:14;;;;;;;3.22;2.90;;;;;;;;;;6240838;28;20115;-78
2021/06/03 11:59:16;;;;;;;4.32;3.05;;;;;;;;;;6247205;28;20522;-80
2021/06/03 12:02:42;;;;;;;3.05;2.83;;;;;;;;;;6242739;28;20195;-79
2021/06/03 12:05:45;;;;;;;3.42;2.90;;;;;;;;;;6211407;28;20054;-78
2021/06/03 12:08:57;;;;;;;3.25;2.67;;;;;;;;;;6212812;28;20037;-78
2021/06/03 12:12:00;;;;;;;;;;;;;;;;;;6234502;28;20050;-79
2021/06/03 12:15:15;;;;;;;3.20;2.55;;;;;;;;;;6224807;28;19925;-80
2021/06/03 12:18:16;;;;;;;3.20;2.80;;;;;;;;;;6243588;28;20049;-80
2021/06/03 12:21:22;;;;;;;2.60;2.40;;;;;;;;;;6249343;28;20136;-80
2021/06/03 12:24:42;;;;;;;3.47;2.95;;;;;;;;;;6248806;28;20128;-79
2021/06/03 12:27:47;;;;;;;3.40;2.30;;;;;;;;;;6252741;28;20065;-79
2021/06/03 12:30:48;;;;;;;2.78;2.58;;;;;;;;;;6257424;28;20037;-79
2021/06/03 12:33:50;;;;;;;3.55;2.80;;;;;;;;;;6257758;28;20442;-79
2021/06/03 12:36:52;;;;;;;8.70;6.13;;;;;;;;;;6254009;28;20099;-79
2021/06/03 12:39:55;;;;;;;2.90;2.70;;;;;;;;;;6230068;28;20046;-79
2021/06/03 12:43:09;;;;;;;3.78;3.20;;;;;;;;;;6229057;28;20448;-78
2021/06/03 12:46:12;;;;;;;3.42;2.70;;;;;;;;;;6235177;28;20049;-78
2021/06/03 12:49:26;;;;;;;4.93;3.50;;;;;;;;;;6252476;28;20053;-78
2021/06/03 12:52:28;;;;;;;4.35;3.05;;;;;;;;;;6247476;28;20128;-78
2021/06/03 12:55:30;;;;;;;4.22;3.70;;;;;;;;;;6244850;28;20037;-77
2021/06/03 12:58:33;;;;;;;3.90;3.20;;;;;;;;;;6237151;28;20143;-78
2021/06/03 13:01:34;;;;;;;5.22;3.30;;;;;;;;;;6237080;28;20044;-78
2021/06/03 13:04:43;;;;;;;4.00;3.10;;;;;;;;;;6230586;28;20085;-78
2021/06/03 13:07:46;;;;;;;4.93;3.40;;;;;;;;;;6209552;28;21366;-77
2021/06/03 13:10:52;;;;;;;3.42;2.47;;;;;;;;;;6207356;28;20172;-78
2021/06/03 13:13:55;;;;;;;3.53;2.67;;;;;;;;;;6219610;28;20052;-78
2021/06/03 13:17:05;;;;;;;5.72;3.38;;;;;;;;;;6237336;28;20042;-78
2021/06/03 13:20:18;;;;;;;3.38;2.90;;;;;;;;;;6218844;28;20054;-79
2021/06/03 13:23:26;;;;;;;4.30;3.20;;;;;;;;;;6212029;28;20042;-77
2021/06/03 13:26:28;;;;;;;5.18;4.68;;;;;;;;;;6212511;28;20038;-77
2021/06/03 13:29:30;;;;;;;5.15;2.80;;;;;;;;;;6228290;28;20056;-78
2021/06/03 13:32:34;;;;;;;4.00;3.20;;;;;;;;;;6215499;28;20042;-77
2021/06/03 13:35:48;;;;;;;4.75;3.67;;;;;;;;;;6234510;28;20045;-78
2021/06/03 13:38:50;;;;;;;5.03;3.80;;;;;;;;;;6195387;28;20124;-79
2021/06/03 13:41:51;;;;;;;5.10;3.75;;;;;;;;;;6204212;28;20152;-78
2021/06/03 13:45:04;;;;;;;5.47;3.60;;;;;;;;;;6219750;28;20060;-80
2021/06/03 13:48:23;;;;;;;4.03;3.30;;;;;;;;;;6214107;28;20042;-78
2021/06/03 13:51:25;;;;;;;4.00;3.08;;;;;;;;;;6225765;28;20522;-80
2021/06/03 13:54:27;;;;;;;6.20;3.22;;;;;;;;;;6234137;28;20552;-79
2021/06/03 13:57:45;;;;;;;4.43;3.42;;;;;;;;;;6251812;28;20048;-78
2021/06/03 14:00:47;;;;;;;5.15;3.40;;;;;;;;;;6238037;28;20514;-79
2021/06/03 14:04:11;;;;;;;5.65;4.68;;;;;;;;;;6235155;28;20574;-80
2021/06/03 14:07:12;;;;;;;3.97;3.33;;;;;;;;;;6210129;28;20050;-80
2021/06/03 14:10:15;;;;;;;3.70;3.37;;;;;;;;;;6223685;28;20068;-80
2021/06/03 14:13:16;;;;;;;3.25;2.95;;;;;;;;;;6232644;28;20041;-80
2021/06/03 14:16:39;;;;;;;3.53;3.22;;;;;;;;;;6236333;28;20675;-80
2021/06/03 14:19:40;;;;;;;4.63;3.50;;;;;;;;;;6213028;28;20118;-78
2021/06/03 14:22:43;;;;;;;4.13;3.35;;;;;;;;;;6207896;28;20461;-78
2021/06/03 14:25:45;;;;;;;;;;;;;;;;;;6223174;28;20046;-79
2021/06/03 14:29:00;;;;;;;4.65;3.25;;;;;;;;;;6211281;28;19930;-81
2021/06/03 14:32:09;;;;;;;4.25;3.10;;;;;;;;;;6221789;28;20492;-79
2021/06/03 14:35:32;;;;;;;4.00;3.60;;;;;;;;;;6211346;28;20042;-80
2021/06/03 14:38:35;;;;;;;3.80;3.50;;;;;;;;;;6215483;28;20073;-79
2021/06/03 14:41:43;;;;;;;4.25;3.65;;;;;;;;;;6218246;28;20050;-80
2021/06/03 14:44:53;;;;;;;3.67;3.35;;;;;;;;;;6211632;28;20061;-81
2021/06/03 14:47:57;;;;;;;3.85;3.50;;;;;;;;;;6200213;28;20050;-80
2021/06/03 14:51:01;;;;;;;5.05;3.47;;;;;;;;;;6210099;28;20052;-79
2021/06/03 14:54:03;;;;;;;3.50;3.20;;;;;;;;;;6233194;28;20136;-80
2021/06/03 14:57:05;;;;;;;3.25;2.95;;;;;;;;;;6255442;28;20860;-80
2021/06/03 15:00:17;;;;;;;3.75;3.38;;;;;;;;;;6255326;28;20041;-80
2021/06/03 15:03:23;;;;;;;3.85;3.50;;;;;;;;;;6257329;28;20080;-79
2021/06/03 15:06:26;;;;;;;4.20;3.33;;;;;;;;;;6259468;28;20068;-82
2021/06/03 15:09:30;;;;;;;3.70;3.40;;;;;;;;;;6263567;28;20045;-81
2021/06/03 15:12:32;;;;;;;4.85;3.40;;;;;;;;;;6260140;28;20508;-81
2021/06/03 15:15:36;;;;;;;5.13;3.60;;;;;;;;;;6265084;28;20486;-82
2021/06/03 15:18:38;;;;;;;5.22;3.60;;;;;;;;;;6256745;28;20071;-81
2021/06/03 15:21:40;;;;;;;5.57;3.70;;;;;;;;;;6261849;28;20109;-81
2021/06/03 15:24:42;;;;;;;3.83;3.53;;;;;;;;;;6249765;28;20102;-81
2021/06/03 15:27:44;;;;;;;3.95;3.55;;;;;;;;;;6231150;28;20069;-80
2021/06/03 15:30:49;;;;;;;3.90;3.55;;;;;;;;;;6208806;28;20049;-79
2021/06/03 15:33:51;;;;;;;5.35;3.33;;;;;;;;;;6231023;28;20045;-78
2021/06/03 15:36:52;;;;;;;4.47;3.15;;;;;;;;;;6227951;28;20099;-78
2021/06/03 15:39:54;;;;;;;3.60;3.30;;;;;;;;;;6229080;28;20070;-79
2021/06/03 15:42:56;;;;;;;3.45;3.15;;;;;;;;;;6225208;28;20617;-79
2021/06/03 15:45:58;;;;;;;;;;;;;;;;;;6228133;28;20470;-78
2021/06/03 15:49:00;;;;;;;4.43;3.22;;;;;;;;;;6226480;28;20400;-80
2021/06/03 15:52:06;;;;;;;4.32;3.58;;;;;;;;;;6226788;28;20050;-78
2021/06/03 15:55:10;;;;;;;3.50;3.20;;;;;;;;;;6226165;28;20105;-79
2021/06/03 15:58:12;;;;;;;5.47;4.30;;;;;;;;;;6225222;28;20132;-80
2021/06/03 16:01:13;;;;;;;4.28;3.90;;;;;;;;;;6224775;28;20766;-79
2021/06/03 16:04:15;;;;;;;4.10;3.70;;;;;;;;;;6204653;28;20062;-78
2021/06/03 16:07:16;;;;;;;4.43;3.50;;;;;;;;;;6227494;28;20185;-79
2021/06/03 16:10:19;;;;;;;4.80;4.40;;;;;;;;;;6240595;28;20108;-80
2021/06/03 16:13:21;;;;;;;4.60;3.88;;;;;;;;;;6253858;28;20049;-79
2021/06/03 16:16:22;;;;;;;4.18;3.53;;;;;;;;;;6252880;28;20105;-80
2021/06/03 16:19:25;;;;;;;4.35;3.65;;;;;;;;;;6271289;28;20056;-80
2021/06/03 16:22:26;;;;;;;4.85;3.60;;;;;;;;;;6251353;28;20113;-79
2021/06/03 16:25:28;;;;;;;4.10;3.73;;;;;;;;;;6258674;28;20966;-79
2021/06/03 16:28:30;;;;;;;4.10;3.70;;;;;;;;;;6228732;28;20050;-79
2021/06/03 16:31:33;;;;;;;3.73;3.33;;;;;;;;;;6245805;28;20105;-80
2021/06/03 16:34:35;;;;;;;3.90;3.60;;;;;;;;;;6251564;28;20045;-80
2021/06/03 16:37:37;;;;;;;4.20;3.50;;;;;;;;;;6253447;28;20086;-80
2021/06/03 16:40:42;;;;;;;4.33;3.40;;;;;;;;;;6267898;28;20048;-80
2021/06/03 16:43:44;;;;;;;3.72;3.42;;;;;;;;;;6275725;28;20524;-80
2021/06/03 16:46:45;;;;;;;6.17;3.77;;;;;;;;;;6266253;28;20037;-80
2021/06/03 16:49:47;;;;;;;4.65;3.78;;;;;;;;;;6275074;28;20094;-79
2021/06/03 16:52:51;;;;;;;4.57;4.13;;;;;;;;;;6274742;28;20128;-79
2021/06/03 16:55:55;;;;;;;4.97;3.90;;;;;;;;;;6277877;28;20091;-79
2021/06/03 16:58:57;;;;;;;4.57;4.18;;;;;;;;;;6281887;28;20111;-81
2021/06/03 17:01:59;;;;;;;5.00;4.13;;;;;;;;;;6279328;28;20048;-81
2021/06/03 17:05:01;;;;;;;5.97;4.15;;;;;;;;;;6274192;28;20091;-81
2021/06/03 17:08:03;;;;;;;5.20;4.00;;;;;;;;;;6273085;28;20061;-81
2021/06/03 17:11:06;;;;;;;4.97;3.95;;;;;;;;;;6269216;28;20065;-80
2021/06/03 17:14:09;;;;;;;4.63;4.22;;;;;;;;;;6253007;28;20109;-81
2021/06/03 17:17:10;;;;;;;4.93;3.92;;;;;;;;;;6247893;28;20546;-80
2021/06/03 17:20:17;;;;;;;4.20;3.80;;;;;;;;;;6245620;28;20097;-80
2021/06/03 17:23:20;;;;;;;5.10;3.65;;;;;;;;;;6247462;28;20129;-81
2021/06/03 17:26:23;;;;;;;3.83;3.53;;;;;;;;;;6209283;28;20662;-80
2021/06/03 17:29:24;;;;;;;4.22;3.83;;;;;;;;;;6227394;28;20161;-79
2021/06/03 17:32:26;;;;;;;5.10;4.60;;;;;;;;;;6217728;28;20048;-80
2021/06/03 17:35:30;;;;;;;5.88;4.82;;;;;;;;;;6216646;28;20038;-78
2021/06/03 17:38:32;;;;;;;5.20;4.70;;;;;;;;;;6232504;28;20057;-80
2021/06/03 17:41:34;;;;;;;5.07;4.25;;;;;;;;;;6229177;28;20426;-80
2021/06/03 17:44:36;;;;;;;5.20;4.32;;;;;;;;;;6214137;28;20045;-80
2021/06/03 17:47:39;;;;;;;4.78;4.15;;;;;;;;;;6215957;28;20053;-80
2021/06/03 17:50:41;;;;;;;13.35;9.13;;;;;;;;;;6203184;28;20043;-81
2021/06/03 17:53:43;;;;;;;;;;;;;;;;;;6221666;28;20050;-80
2021/06/03 17:56:46;;;;;;;5.18;4.35;;;;;;;;;;6226189;28;19921;-81
2021/06/03 17:59:47;;;;;;;5.07;4.57;;;;;;;;;;6227621;28;20113;-79
2021/06/03 18:02:50;;;;;;;4.88;4.20;;;;;;;;;;6226715;28;20310;-80
2021/06/03 18:05:52;;;;;;;5.38;4.88;;;;;;;;;;6229708;28;20054;-83
2021/06/03 18:08:54;;;;;;;;;;;;;;;;;;6223649;28;20125;-81
2021/06/03 18:11:56;;;;;;;3.22;2.25;;;;;;;;;;6212988;28;19929;-81
2021/06/03 18:14:58;;;;;;;3.22;2.50;;;;;;;;;;6213334;28;20054;-80
2021/06/03 18:18:00;;;;;;;1.67;1.58;;;;;;;;;;6211269;28;20054;-79
2021/06/03 18:21:03;;;;;;;2.13;1.83;;;;;;;;;;6187867;28;20213;-80
2021/06/03 18:24:05;;;;;;;3.40;1.38;;;;;;;;;;6175258;28;20124;-80
2021/06/03 18:27:07;;;;;;;1.17;1.07;;;;;;;;;;6213716;28;20525;-80